createdAt,value
2022-12-16T00:01:17.929Z,3.90
2022-12-16T00:03:54.832Z,3.88
2022-12-16T00:06:26.931Z,3.97
2022-12-16T00:08:55.401Z,2.58
2022-12-16T00:11:23.680Z,3.50
2022-12-16T00:13:51.681Z,3.50
2022-12-16T00:16:21.624Z,4.60
2022-12-16T00:18:51.887Z,3.80
2022-12-16T00:21:20.943Z,4.45
2022-12-16T00:23:49.245Z,3.35
2022-12-16T00:26:17.451Z,4.50
2022-12-16T00:28:45.659Z,4.20
2022-12-16T00:31:14.087Z,4.05
2022-12-16T00:33:42.281Z,4.90
2022-12-16T00:36:10.732Z,4.70
2022-12-16T00:38:38.841Z,3.50
2022-12-16T00:41:08.723Z,3.22
2022-12-16T00:43:36.753Z,6.22
2022-12-16T00:46:05.501Z,3.83
2022-12-16T00:48:34.270Z,3.83
2022-12-16T00:51:02.665Z,12.45
2022-12-16T00:53:31.065Z,5.15
2022-12-16T00:56:09.619Z,2.97
2022-12-16T00:58:38.156Z,2.10
2022-12-16T01:01:06.949Z,2.20
2022-12-16T01:03:35.820Z,1.92
2022-12-16T01:06:15.708Z,2.80
2022-12-16T01:08:49.000Z,4.60
2022-12-16T01:13:49.649Z,2.72
2022-12-16T01:16:18.103Z,1.80
2022-12-16T01:18:46.759Z,2.45
2022-12-16T01:21:15.968Z,1.50
2022-12-16T01:23:43.888Z,1.65
2022-12-16T01:26:16.980Z,1.70
2022-12-16T01:28:45.371Z,1.75
2022-12-16T01:31:16.841Z,1.67
2022-12-16T01:33:44.990Z,1.40
2022-12-16T01:36:13.280Z,1.63
2022-12-16T01:38:44.413Z,1.92
2022-12-16T01:41:15.700Z,3.03
2022-12-16T01:43:45.773Z,1.35
2022-12-16T01:46:13.940Z,1.50
2022-12-16T01:49:02.850Z,1.73
2022-12-16T01:51:38.581Z,3.65
2022-12-16T01:57:28.741Z,4.40
2022-12-16T01:59:58.070Z,2.30
2022-12-16T02:02:28.275Z,3.30
2022-12-16T02:05:15.499Z,3.58
2022-12-16T02:07:43.341Z,4.05
2022-12-16T02:13:24.823Z,4.53
2022-12-16T02:16:17.354Z,3.90
2022-12-16T02:19:18.260Z,3.70
2022-12-16T02:22:22.221Z,6.05
2022-12-16T02:25:43.645Z,6.85
2022-12-16T02:31:35.800Z,4.03
2022-12-16T02:34:04.020Z,4.72
2022-12-16T02:36:41.020Z,2.95
2022-12-16T02:39:37.968Z,2.50
2022-12-16T02:42:26.740Z,2.17
2022-12-16T02:48:15.395Z,2.28
2022-12-16T02:50:51.541Z,1.40
2022-12-16T02:53:21.101Z,1.30
2022-12-16T02:56:01.253Z,2.35
2022-12-16T02:58:41.330Z,1.95
2022-12-16T03:04:37.459Z,4.07
2022-12-16T03:07:10.731Z,5.55
2022-12-16T03:09:41.347Z,3.90
2022-12-16T03:12:16.471Z,3.80
2022-12-16T03:14:48.681Z,6.00
2022-12-16T03:20:32.100Z,4.53
2022-12-16T03:23:07.132Z,4.78
2022-12-16T03:25:38.970Z,4.22
2022-12-16T03:28:17.152Z,5.03
2022-12-16T03:30:52.222Z,4.60
2022-12-16T03:33:29.385Z,6.63
2022-12-16T03:36:22.771Z,3.67
2022-12-16T03:38:52.099Z,7.17
2022-12-16T03:41:22.191Z,4.13
2022-12-16T03:43:50.870Z,6.53
2022-12-16T03:46:18.989Z,4.72
2022-12-16T03:48:50.090Z,6.00
2022-12-16T03:54:24.510Z,5.13
2022-12-16T03:56:52.931Z,4.72
2022-12-16T03:59:20.861Z,5.78
2022-12-16T04:01:50.624Z,7.65
2022-12-16T04:04:19.313Z,7.10
2022-12-16T04:07:07.494Z,7.78
2022-12-16T04:09:38.438Z,9.50
2022-12-16T04:12:25.474Z,7.20
2022-12-16T04:15:11.789Z,6.20
2022-12-16T04:17:58.743Z,5.45
2022-12-16T04:20:51.566Z,4.53
2022-12-16T04:23:45.226Z,6.47
2022-12-16T04:26:26.324Z,6.50
2022-12-16T04:28:54.630Z,6.45
2022-12-16T04:31:22.627Z,5.55
2022-12-16T04:34:09.676Z,7.65
2022-12-16T04:36:56.491Z,6.07
2022-12-16T04:39:43.424Z,8.10
2022-12-16T04:45:53.237Z,13.68
2022-12-16T04:48:40.210Z,8.00
2022-12-16T04:51:26.563Z,10.73
2022-12-16T04:54:14.635Z,7.85
2022-12-16T04:57:01.383Z,12.90
2022-12-16T05:00:00.783Z,9.82
2022-12-16T05:02:47.198Z,11.98
2022-12-16T05:05:34.141Z,12.23
2022-12-16T05:08:20.715Z,22.13
2022-12-16T05:11:07.404Z,11.40
2022-12-16T05:13:54.174Z,12.82
2022-12-16T05:16:41.014Z,14.80
2022-12-16T05:19:31.630Z,14.40
2022-12-16T05:22:18.910Z,14.48
2022-12-16T05:25:05.567Z,10.63
2022-12-16T05:27:52.154Z,11.52
2022-12-16T05:34:01.243Z,12.82
2022-12-16T05:36:48.523Z,12.23
2022-12-16T05:39:34.682Z,13.23
2022-12-16T05:42:21.581Z,12.75
2022-12-16T05:45:08.162Z,15.77
2022-12-16T05:47:55.353Z,12.13
2022-12-16T05:50:42.142Z,15.95
2022-12-16T05:53:29.365Z,15.25
2022-12-16T05:56:15.922Z,17.35
2022-12-16T05:59:02.782Z,12.60
2022-12-16T06:01:49.579Z,14.95
2022-12-16T06:04:37.242Z,14.65
2022-12-16T06:07:23.668Z,19.33
2022-12-16T06:10:11.643Z,13.02
2022-12-16T06:12:58.221Z,13.13
2022-12-16T06:15:44.889Z,12.68
2022-12-16T06:18:31.311Z,14.23
2022-12-16T06:21:19.524Z,11.65
2022-12-16T06:24:06.083Z,16.45
2022-12-16T06:26:52.960Z,19.58
2022-12-16T06:29:41.145Z,14.80
2022-12-16T06:32:28.080Z,21.10
2022-12-16T06:35:14.632Z,18.20
2022-12-16T06:38:06.488Z,18.08
2022-12-16T06:40:53.258Z,19.13
2022-12-16T06:43:42.180Z,18.60
2022-12-16T06:46:28.810Z,19.73
2022-12-16T06:49:15.641Z,19.92
2022-12-16T06:52:02.688Z,25.70
2022-12-16T06:54:49.278Z,20.55
2022-12-16T06:57:35.947Z,21.73
2022-12-16T07:00:23.147Z,23.63
2022-12-16T07:03:09.686Z,21.55
2022-12-16T07:05:57.711Z,24.55
2022-12-16T07:08:44.374Z,23.67
2022-12-16T07:11:30.967Z,24.88
2022-12-16T07:14:17.805Z,26.50
2022-12-16T07:17:05.155Z,22.23
2022-12-16T07:19:51.774Z,20.88
2022-12-16T07:22:39.216Z,22.63
2022-12-16T07:25:26.226Z,21.65
2022-12-16T07:28:15.633Z,26.33
2022-12-16T07:31:02.627Z,28.17
2022-12-16T07:33:50.264Z,53.90
2022-12-16T07:36:37.063Z,31.33
2022-12-16T07:39:25.054Z,22.95
2022-12-16T07:42:11.615Z,26.02
2022-12-16T07:44:58.444Z,24.92
2022-12-16T07:47:44.684Z,24.23
2022-12-16T07:50:33.226Z,27.02
2022-12-16T07:53:19.664Z,27.38
2022-12-16T07:56:06.284Z,22.25
2022-12-16T07:58:52.843Z,22.63
2022-12-16T08:01:42.645Z,27.52
2022-12-16T08:04:29.367Z,24.67
2022-12-16T08:07:16.245Z,29.27
2022-12-16T08:10:02.744Z,22.50
2022-12-16T08:12:49.493Z,22.80
2022-12-16T08:15:36.025Z,22.67
2022-12-16T08:18:24.114Z,24.55
2022-12-16T08:21:10.864Z,22.40
2022-12-16T08:23:58.639Z,23.48
2022-12-16T08:26:45.288Z,22.38
2022-12-16T08:29:44.350Z,19.77
2022-12-16T08:32:35.737Z,26.88
2022-12-16T08:35:22.638Z,19.45
2022-12-16T08:38:14.107Z,22.45
2022-12-16T08:41:02.487Z,22.50
2022-12-16T08:43:53.938Z,25.00
2022-12-16T08:46:43.102Z,28.45
2022-12-16T08:49:29.778Z,22.80
2022-12-16T08:52:16.387Z,23.23
2022-12-16T08:55:02.827Z,26.58
2022-12-16T08:57:49.688Z,28.30
2022-12-16T09:00:36.567Z,25.00
2022-12-16T09:03:24.021Z,24.02
2022-12-16T09:06:10.782Z,23.77
2022-12-16T09:08:58.487Z,21.92
2022-12-16T09:11:45.188Z,22.98
2022-12-16T09:14:32.305Z,19.85
2022-12-16T09:17:18.538Z,23.50
2022-12-16T09:20:06.200Z,17.67
2022-12-16T09:22:52.768Z,19.30
2022-12-16T09:25:42.061Z,15.52
2022-12-16T09:28:28.288Z,16.42
2022-12-16T09:31:31.904Z,12.32
2022-12-16T09:34:18.298Z,18.70
2022-12-16T09:37:05.080Z,16.85
2022-12-16T09:39:51.698Z,15.63
2022-12-16T09:42:52.019Z,16.90
2022-12-16T09:46:05.921Z,14.35
2022-12-16T09:49:01.659Z,14.52
2022-12-16T09:51:48.728Z,15.05
2022-12-16T09:54:42.472Z,13.85
2022-12-16T09:57:29.115Z,17.85
2022-12-16T10:00:23.122Z,19.70
2022-12-16T10:03:09.962Z,16.10
2022-12-16T10:06:26.515Z,14.18
2022-12-16T10:09:24.990Z,13.13
2022-12-16T10:12:25.470Z,11.18
2022-12-16T10:15:23.689Z,12.75
2022-12-16T10:18:10.459Z,13.77
2022-12-16T10:21:09.198Z,12.57
2022-12-16T10:24:33.908Z,12.82
2022-12-16T10:27:33.894Z,11.03
2022-12-16T10:30:22.872Z,13.95
2022-12-16T10:33:09.830Z,12.98
2022-12-16T10:36:00.670Z,12.55
2022-12-16T10:38:57.560Z,17.58
2022-12-16T10:41:52.908Z,10.23
2022-12-16T10:44:48.219Z,13.38
2022-12-16T10:47:36.000Z,11.90
2022-12-16T10:50:22.800Z,12.00
2022-12-16T10:53:33.197Z,11.40
2022-12-16T10:56:33.268Z,10.60
2022-12-16T10:59:24.587Z,8.07
2022-12-16T11:02:24.076Z,9.48
2022-12-16T11:05:11.210Z,11.05
2022-12-16T11:08:11.370Z,12.95
2022-12-16T11:11:00.954Z,8.93
2022-12-16T11:13:51.019Z,7.88
2022-12-16T11:16:43.675Z,12.90
2022-12-16T11:19:41.097Z,13.38
2022-12-16T11:22:41.199Z,15.00
2022-12-16T11:25:36.982Z,14.50
2022-12-16T11:28:36.535Z,16.13
2022-12-16T11:31:31.875Z,14.93
2022-12-16T11:34:21.767Z,17.00
2022-12-16T11:37:11.050Z,15.63
2022-12-16T11:39:58.611Z,22.17
2022-12-16T11:42:50.598Z,14.32
2022-12-16T11:45:40.225Z,18.27
2022-12-16T11:48:41.526Z,14.77
2022-12-16T11:51:32.502Z,23.50
2022-12-16T11:54:58.017Z,19.77
2022-12-16T11:57:59.927Z,14.43
2022-12-16T12:00:47.615Z,19.52
2022-12-16T12:03:43.401Z,16.02
2022-12-16T12:06:51.318Z,17.48
2022-12-16T12:09:46.207Z,28.92
2022-12-16T12:12:49.576Z,16.92
2022-12-16T12:16:05.535Z,18.65
2022-12-16T12:19:03.953Z,14.70
2022-12-16T12:22:00.821Z,12.68
2022-12-16T12:24:58.190Z,15.50
2022-12-16T12:28:18.315Z,15.77
2022-12-16T12:31:18.257Z,15.88
2022-12-16T12:34:38.486Z,16.25
2022-12-16T12:37:36.757Z,16.63
2022-12-16T12:40:51.077Z,15.18
2022-12-16T12:43:57.306Z,14.38
2022-12-16T12:47:17.797Z,17.05
2022-12-16T12:50:29.009Z,15.30
2022-12-16T12:53:34.600Z,14.40
2022-12-16T12:56:37.848Z,12.93
2022-12-16T12:59:41.777Z,16.58
2022-12-16T13:02:38.958Z,12.27
2022-12-16T13:05:34.146Z,15.93
2022-12-16T13:08:51.587Z,27.15
2022-12-16T13:11:40.575Z,24.33
2022-12-16T13:14:51.848Z,19.60
2022-12-16T13:17:41.771Z,14.75
2022-12-16T13:20:57.694Z,12.13
2022-12-16T13:23:47.674Z,12.63
2022-12-16T13:26:36.581Z,11.68
2022-12-16T13:29:41.839Z,13.25
2022-12-16T13:32:28.240Z,18.05
2022-12-16T13:35:27.184Z,13.65
2022-12-16T13:38:19.340Z,16.23
2022-12-16T13:41:20.017Z,14.75
2022-12-16T13:44:19.391Z,19.48
2022-12-16T13:47:13.137Z,18.38
2022-12-16T13:50:10.985Z,16.33
2022-12-16T13:53:03.441Z,14.57
2022-12-16T13:55:56.927Z,19.60
2022-12-16T13:58:57.852Z,21.33
2022-12-16T14:01:55.741Z,22.98
2022-12-16T14:04:48.887Z,22.20
2022-12-16T14:07:41.177Z,20.50
2022-12-16T14:10:44.636Z,19.23
2022-12-16T14:13:41.788Z,18.27
2022-12-16T14:16:33.334Z,15.45
2022-12-16T14:19:33.728Z,25.25
2022-12-16T14:23:47.309Z,21.65
2022-12-16T14:26:31.836Z,15.35
2022-12-16T14:29:21.118Z,19.38
2022-12-16T14:32:07.400Z,17.92
2022-12-16T14:34:56.316Z,16.02
2022-12-16T14:37:53.320Z,39.95
2022-12-16T14:40:48.659Z,24.52
2022-12-16T14:43:39.547Z,22.95
2022-12-16T14:46:50.737Z,20.60
2022-12-16T14:49:51.147Z,18.92
2022-12-16T14:52:46.850Z,17.92
2022-12-16T14:55:37.038Z,21.08
2022-12-16T14:58:36.047Z,21.63
2022-12-16T15:01:35.033Z,21.25
2022-12-16T15:04:27.790Z,20.10
2022-12-16T15:07:14.993Z,22.17
2022-12-16T15:10:09.597Z,19.02
2022-12-16T15:13:04.698Z,23.48
2022-12-16T15:15:57.538Z,25.23
2022-12-16T15:18:51.071Z,25.77
2022-12-16T15:21:38.227Z,18.33
2022-12-16T15:24:29.767Z,24.30
2022-12-16T15:27:52.868Z,23.23
2022-12-16T15:30:53.721Z,26.58
2022-12-16T15:33:44.530Z,33.00
2022-12-16T15:36:37.498Z,23.25
2022-12-16T15:39:46.051Z,25.52
2022-12-16T15:42:39.638Z,25.23
2022-12-16T15:45:49.842Z,23.95
2022-12-16T15:48:42.003Z,25.80
2022-12-16T15:51:47.357Z,27.57
2022-12-16T15:54:42.878Z,29.45
2022-12-16T15:57:52.922Z,31.35
2022-12-16T16:00:45.563Z,30.15
2022-12-16T16:03:58.346Z,28.83
2022-12-16T16:06:45.898Z,22.88
2022-12-16T16:09:33.594Z,30.77
2022-12-16T16:12:20.462Z,27.58
2022-12-16T16:15:08.503Z,33.35
2022-12-16T16:17:55.093Z,31.20
2022-12-16T16:20:42.152Z,30.08
2022-12-16T16:23:29.622Z,30.25
2022-12-16T16:26:16.872Z,30.30
2022-12-16T16:29:03.401Z,37.55
2022-12-16T16:31:50.311Z,33.72
2022-12-16T16:34:36.842Z,31.90
2022-12-16T16:37:32.829Z,38.47
2022-12-16T16:40:20.559Z,32.70
2022-12-16T16:43:07.404Z,37.20
2022-12-16T16:45:54.028Z,36.20
2022-12-16T16:48:41.013Z,32.70
2022-12-16T16:51:27.580Z,37.90
2022-12-16T16:54:14.931Z,46.40
2022-12-16T16:57:01.583Z,36.08
2022-12-16T16:59:48.169Z,31.60
2022-12-16T17:02:41.147Z,35.63
2022-12-16T17:05:31.145Z,35.08
2022-12-16T17:08:17.613Z,34.13
2022-12-16T17:11:06.451Z,39.33
2022-12-16T17:13:53.183Z,34.15
2022-12-16T17:16:40.216Z,32.97
2022-12-16T17:19:26.794Z,39.00
2022-12-16T17:22:13.663Z,100.90
2022-12-16T17:25:00.287Z,42.75
2022-12-16T17:27:47.402Z,35.10
2022-12-16T17:30:46.635Z,41.90
2022-12-16T17:33:35.603Z,33.38
2022-12-16T17:36:25.100Z,32.10
2022-12-16T17:39:15.842Z,39.42
2022-12-16T17:42:02.563Z,41.10
2022-12-16T17:44:49.793Z,39.70
2022-12-16T17:47:36.692Z,37.58
2022-12-16T17:50:25.043Z,51.00
2022-12-16T17:53:15.262Z,43.13
2022-12-16T17:56:02.382Z,49.22
2022-12-16T17:58:55.071Z,45.25
2022-12-16T18:01:43.654Z,51.38
2022-12-16T18:04:30.477Z,37.80
2022-12-16T18:07:17.586Z,41.30
2022-12-16T18:10:04.263Z,54.53
2022-12-16T18:12:52.183Z,52.95
2022-12-16T18:15:38.833Z,48.00
2022-12-16T18:18:25.801Z,50.13
2022-12-16T18:21:12.453Z,44.72
2022-12-16T18:23:59.833Z,42.45
2022-12-16T18:26:46.275Z,46.47
2022-12-16T18:29:34.033Z,46.13
2022-12-16T18:32:20.708Z,53.42
2022-12-16T18:35:07.633Z,48.83
2022-12-16T18:37:54.264Z,56.42
2022-12-16T18:40:41.194Z,55.17
2022-12-16T18:43:30.479Z,53.33
2022-12-16T18:46:18.377Z,57.25
2022-12-16T18:49:04.892Z,53.60
2022-12-16T18:51:51.490Z,46.78
2022-12-16T18:54:38.034Z,48.50
2022-12-16T18:57:25.945Z,49.70
2022-12-16T19:00:12.445Z,44.08
2022-12-16T19:02:59.909Z,45.78
2022-12-16T19:05:46.384Z,50.67
2022-12-16T19:08:33.472Z,43.92
2022-12-16T19:11:20.933Z,48.10
2022-12-16T19:14:09.152Z,47.45
2022-12-16T19:16:56.417Z,43.75
2022-12-16T19:19:43.885Z,45.05
2022-12-16T19:22:30.584Z,38.22
2022-12-16T19:25:17.093Z,42.13
2022-12-16T19:28:04.757Z,36.75
2022-12-16T19:30:52.615Z,42.63
2022-12-16T19:33:43.064Z,40.58
2022-12-16T19:36:29.761Z,45.70
2022-12-16T19:39:17.256Z,41.75
2022-12-16T19:42:04.231Z,36.95
2022-12-16T19:44:50.733Z,40.80
2022-12-16T19:47:38.979Z,40.33
2022-12-16T19:50:28.720Z,40.35
2022-12-16T19:53:15.903Z,47.17
2022-12-16T19:56:02.720Z,43.60
2022-12-16T19:58:49.892Z,37.40
2022-12-16T20:01:36.769Z,45.03
2022-12-16T20:04:23.311Z,50.22
2022-12-16T20:07:09.763Z,49.35
2022-12-16T20:09:56.951Z,42.85
2022-12-16T20:12:50.996Z,37.63
2022-12-16T20:15:40.006Z,38.55
2022-12-16T20:18:26.453Z,38.17
2022-12-16T20:21:13.171Z,38.42
2022-12-16T20:23:59.901Z,41.72
2022-12-16T20:26:46.526Z,39.25
2022-12-16T20:29:33.135Z,40.38
2022-12-16T20:32:21.201Z,36.25
2022-12-16T20:35:07.771Z,36.20
2022-12-16T20:37:56.188Z,38.97
2022-12-16T20:40:42.904Z,43.03
2022-12-16T20:43:31.711Z,45.83
2022-12-16T20:46:17.985Z,45.78
2022-12-16T20:49:05.258Z,34.67
2022-12-16T20:51:51.600Z,40.85
2022-12-16T20:54:38.363Z,37.25
2022-12-16T20:57:25.235Z,36.55
2022-12-16T21:00:12.193Z,38.63
2022-12-16T21:02:58.664Z,36.60
2022-12-16T21:05:46.249Z,38.05
2022-12-16T21:08:32.860Z,33.42
2022-12-16T21:11:19.620Z,32.17
2022-12-16T21:14:06.376Z,34.22
2022-12-16T21:16:53.209Z,36.97
2022-12-16T21:19:42.887Z,37.05
2022-12-16T21:22:29.609Z,32.60
2022-12-16T21:25:21.104Z,28.52
2022-12-16T21:28:16.247Z,29.42
2022-12-16T21:31:03.560Z,25.98
2022-12-16T21:33:51.564Z,23.52
2022-12-16T21:36:38.436Z,23.00
2022-12-16T21:39:28.503Z,23.65
2022-12-16T21:42:15.193Z,20.40
2022-12-16T21:45:01.825Z,19.15
2022-12-16T21:47:48.295Z,16.40
2022-12-16T21:50:35.048Z,15.70
2022-12-16T21:53:21.866Z,18.75
2022-12-16T21:56:13.895Z,17.00
2022-12-16T21:59:02.992Z,17.95
2022-12-16T22:01:50.293Z,19.98
2022-12-16T22:04:36.958Z,17.08
2022-12-16T22:07:23.639Z,18.45
2022-12-16T22:10:10.357Z,16.33
2022-12-16T22:12:57.108Z,20.73
2022-12-16T22:15:43.580Z,16.52
2022-12-16T22:18:30.103Z,18.35
2022-12-16T22:21:22.517Z,19.77
2022-12-16T22:24:10.703Z,20.88
2022-12-16T22:26:57.467Z,26.42
2022-12-16T22:29:45.337Z,30.02
2022-12-16T22:32:31.789Z,26.83
2022-12-16T22:35:18.582Z,29.90
2022-12-16T22:38:05.603Z,26.77
2022-12-16T22:40:52.740Z,28.15
2022-12-16T22:43:49.727Z,24.02
2022-12-16T22:46:36.438Z,31.92
2022-12-16T22:49:23.249Z,41.03
2022-12-16T22:52:10.111Z,32.67
2022-12-16T22:54:56.389Z,45.33
2022-12-16T22:57:43.046Z,42.75
2022-12-16T23:00:30.399Z,44.10
2022-12-16T23:03:17.702Z,44.17
2022-12-16T23:06:04.259Z,49.80
2022-12-16T23:08:51.552Z,50.88
2022-12-16T23:11:42.308Z,55.75
2022-12-16T23:14:29.041Z,56.00
2022-12-16T23:17:15.661Z,52.40
2022-12-16T23:20:02.497Z,55.28
2022-12-16T23:22:49.154Z,63.20
2022-12-16T23:25:37.445Z,50.70
2022-12-16T23:28:23.870Z,47.90
2022-12-16T23:31:12.677Z,51.95
2022-12-16T23:33:59.217Z,47.35
2022-12-16T23:36:46.967Z,48.25
2022-12-16T23:39:34.379Z,51.92
2022-12-16T23:42:20.927Z,43.67
2022-12-16T23:45:07.305Z,52.58
2022-12-16T23:47:54.216Z,47.17
2022-12-16T23:50:44.350Z,37.72
2022-12-16T23:53:32.864Z,41.28
2022-12-16T23:56:30.876Z,55.40
2022-12-16T23:59:18.297Z,40.40
